createdAt,value
2019-02-10T00:01:15.859Z,2.10
2019-02-10T00:03:43.268Z,2.37
2019-02-10T00:06:10.986Z,2.17
2019-02-10T00:08:38.401Z,1.80
2019-02-10T00:11:05.791Z,2.50
2019-02-10T00:13:33.986Z,2.40
2019-02-10T00:16:02.738Z,2.13
2019-02-10T00:18:30.157Z,2.20
2019-02-10T00:20:57.545Z,2.70
2019-02-10T00:23:24.969Z,1.90
2019-02-10T00:25:52.392Z,3.77
2019-02-10T00:28:19.805Z,2.23
2019-02-10T00:30:47.275Z,2.40
2019-02-10T00:33:14.690Z,1.63
2019-02-10T00:35:42.118Z,1.97
2019-02-10T00:38:09.610Z,1.90
2019-02-10T00:40:36.995Z,2.30
2019-02-10T00:43:04.521Z,2.87
2019-02-10T00:45:31.912Z,2.27
2019-02-10T00:47:59.330Z,2.50
2019-02-10T00:50:26.724Z,2.70
2019-02-10T00:52:54.125Z,2.80
2019-02-10T00:55:21.513Z,2.40
2019-02-10T00:57:48.925Z,2.47
2019-02-10T01:00:16.583Z,2.67
2019-02-10T01:02:44.014Z,1.60
2019-02-10T01:05:11.390Z,3.33
2019-02-10T01:07:38.782Z,2.43
2019-02-10T01:10:09.051Z,2.03
2019-02-10T01:12:36.537Z,1.97
2019-02-10T01:15:04.967Z,2.35
2019-02-10T01:17:32.380Z,1.80
2019-02-10T01:19:59.792Z,1.60
2019-02-10T01:22:27.258Z,1.80
2019-02-10T01:24:54.663Z,2.17
2019-02-10T01:27:22.235Z,1.90
2019-02-10T01:29:49.650Z,1.93
2019-02-10T01:32:17.038Z,2.00
2019-02-10T01:34:44.463Z,2.20
2019-02-10T01:37:11.856Z,2.10
2019-02-10T01:39:40.801Z,1.73
2019-02-10T01:42:08.282Z,1.50
2019-02-10T01:44:35.764Z,1.60
2019-02-10T01:47:03.216Z,1.77
2019-02-10T01:49:30.629Z,1.87
2019-02-10T01:51:58.080Z,2.20
2019-02-10T01:54:25.599Z,1.60
2019-02-10T01:56:53.062Z,1.90
2019-02-10T01:59:20.519Z,2.50
2019-02-10T02:01:47.909Z,2.13
2019-02-10T02:04:16.257Z,2.63
2019-02-10T02:06:43.642Z,2.15
2019-02-10T02:09:14.747Z,2.17
2019-02-10T02:11:42.174Z,2.27
2019-02-10T02:14:09.562Z,2.20
2019-02-10T02:16:36.976Z,2.37
2019-02-10T02:19:04.442Z,1.73
2019-02-10T02:21:31.849Z,2.90
2019-02-10T02:23:59.236Z,2.57
2019-02-10T02:26:26.646Z,2.00
2019-02-10T02:28:54.030Z,2.70
2019-02-10T02:31:21.561Z,1.93
2019-02-10T02:33:48.955Z,1.90
2019-02-10T02:36:16.388Z,1.73
2019-02-10T02:38:43.785Z,2.03
2019-02-10T02:41:11.190Z,1.77
2019-02-10T02:43:38.582Z,2.20
2019-02-10T02:46:06.099Z,1.70
2019-02-10T02:48:33.490Z,1.70
2019-02-10T02:51:01.135Z,2.20
2019-02-10T02:53:28.638Z,2.07
2019-02-10T02:55:56.053Z,2.20
2019-02-10T02:58:23.440Z,2.27
2019-02-10T03:00:50.859Z,4.57
2019-02-10T03:03:18.246Z,2.00
2019-02-10T03:05:45.666Z,1.90
2019-02-10T03:08:13.083Z,1.90
2019-02-10T03:10:40.498Z,1.63
2019-02-10T03:13:07.882Z,2.00
2019-02-10T03:15:35.347Z,2.53
2019-02-10T03:18:02.763Z,1.70
2019-02-10T03:20:30.153Z,1.43
2019-02-10T03:22:57.568Z,1.40
2019-02-10T03:25:24.953Z,2.27
2019-02-10T03:27:52.370Z,1.87
2019-02-10T03:30:19.768Z,1.60
2019-02-10T03:32:47.174Z,1.63
2019-02-10T03:35:14.566Z,1.87
2019-02-10T03:37:41.989Z,2.03
2019-02-10T03:40:11.051Z,1.73
2019-02-10T03:42:38.536Z,1.43
2019-02-10T03:45:06.782Z,1.90
2019-02-10T03:47:34.198Z,1.40
2019-02-10T03:50:01.594Z,1.97
2019-02-10T03:52:30.010Z,1.40
2019-02-10T03:54:57.459Z,2.07
2019-02-10T03:57:24.954Z,1.70
2019-02-10T03:59:52.323Z,1.50
2019-02-10T04:02:19.832Z,2.20
2019-02-10T04:04:47.215Z,1.97
2019-02-10T04:07:14.627Z,1.80
2019-02-10T04:09:42.001Z,1.83
2019-02-10T04:12:09.422Z,2.00
2019-02-10T04:14:36.805Z,2.87
2019-02-10T04:17:04.392Z,1.33
2019-02-10T04:19:31.776Z,2.60
2019-02-10T04:21:59.180Z,2.00
2019-02-10T04:24:26.566Z,1.70
2019-02-10T04:26:54.002Z,1.87
2019-02-10T04:29:21.428Z,1.80
2019-02-10T04:31:48.843Z,1.80
2019-02-10T04:34:16.232Z,1.90
2019-02-10T04:36:43.660Z,1.90
2019-02-10T04:39:11.037Z,1.70
2019-02-10T04:41:38.446Z,2.03
2019-02-10T04:44:05.834Z,1.90
2019-02-10T04:46:33.251Z,2.00
2019-02-10T04:49:00.668Z,2.00
2019-02-10T04:51:28.065Z,1.47
2019-02-10T04:53:55.483Z,1.60
2019-02-10T04:56:22.878Z,1.40
2019-02-10T04:58:50.345Z,1.57
2019-02-10T05:01:17.863Z,1.53
2019-02-10T05:03:45.271Z,1.50
2019-02-10T05:06:12.652Z,1.60
2019-02-10T05:08:40.069Z,2.27
2019-02-10T05:11:07.450Z,1.90
2019-02-10T05:13:34.869Z,1.77
2019-02-10T05:16:02.271Z,1.70
2019-02-10T05:18:29.689Z,1.83
2019-02-10T05:20:57.142Z,1.73
2019-02-10T05:23:24.571Z,1.43
2019-02-10T05:25:52.026Z,1.40
2019-02-10T05:28:19.442Z,1.63
2019-02-10T05:30:46.826Z,1.80
2019-02-10T05:33:14.235Z,1.43
2019-02-10T05:35:41.691Z,1.50
2019-02-10T05:38:09.119Z,1.60
2019-02-10T05:40:36.503Z,1.70
2019-02-10T05:43:03.915Z,1.60
2019-02-10T05:45:31.304Z,1.63
2019-02-10T05:47:58.725Z,1.60
2019-02-10T05:50:26.185Z,2.03
2019-02-10T05:52:53.606Z,1.60
2019-02-10T05:55:20.980Z,1.67
2019-02-10T05:57:48.404Z,1.30
2019-02-10T06:00:15.785Z,1.43
2019-02-10T06:02:43.167Z,2.60
2019-02-10T06:05:12.449Z,1.20
2019-02-10T06:07:39.835Z,1.80
2019-02-10T06:10:07.597Z,1.60
2019-02-10T06:12:34.988Z,1.60
2019-02-10T06:15:02.410Z,1.47
2019-02-10T06:17:29.795Z,1.47
2019-02-10T06:19:57.241Z,1.40
2019-02-10T06:22:24.684Z,1.10
2019-02-10T06:24:52.096Z,1.13
2019-02-10T06:27:19.491Z,1.77
2019-02-10T06:29:46.917Z,1.60
2019-02-10T06:32:14.302Z,1.60
2019-02-10T06:34:41.717Z,1.50
2019-02-10T06:37:09.221Z,1.30
2019-02-10T06:39:36.702Z,1.73
2019-02-10T06:42:04.165Z,1.60
2019-02-10T06:44:31.579Z,1.97
2019-02-10T06:46:58.962Z,1.90
2019-02-10T06:49:26.430Z,1.57
2019-02-10T06:51:53.824Z,1.53
2019-02-10T06:54:21.242Z,1.20
2019-02-10T06:56:48.666Z,1.40
2019-02-10T06:59:33.941Z,1.57
2019-02-10T07:02:02.973Z,0.80
2019-02-10T07:04:30.396Z,1.20
2019-02-10T07:06:57.782Z,1.33
2019-02-10T07:09:26.274Z,1.77
2019-02-10T07:11:53.733Z,1.50
2019-02-10T07:14:22.914Z,1.60
2019-02-10T07:16:51.844Z,1.57
2019-02-10T07:19:37.526Z,1.73
2019-02-10T07:22:23.146Z,1.70
2019-02-10T07:24:58.431Z,1.47
2019-02-10T07:27:26.809Z,1.60
2019-02-10T07:30:04.722Z,1.43
2019-02-10T07:32:33.650Z,1.10
2019-02-10T07:35:19.461Z,1.90
2019-02-10T07:37:48.389Z,1.47
2019-02-10T07:40:20.083Z,1.50
2019-02-10T07:42:52.093Z,1.60
2019-02-10T07:45:24.061Z,1.40
2019-02-10T07:48:09.507Z,1.20
2019-02-10T07:50:38.458Z,1.20
2019-02-10T07:53:10.299Z,1.60
2019-02-10T07:55:41.977Z,1.10
2019-02-10T07:58:11.008Z,1.10
2019-02-10T08:00:56.774Z,1.33
2019-02-10T08:03:31.940Z,1.33
2019-02-10T08:06:04.086Z,1.43
2019-02-10T08:08:46.592Z,1.63
2019-02-10T08:11:21.801Z,1.23
2019-02-10T08:14:07.328Z,1.47
2019-02-10T08:16:36.286Z,1.30
2019-02-10T08:19:22.022Z,1.60
2019-02-10T08:22:06.014Z,1.33
2019-02-10T08:24:37.895Z,1.30
2019-02-10T08:27:06.849Z,1.20
2019-02-10T08:29:38.557Z,1.90
2019-02-10T08:32:13.713Z,1.30
2019-02-10T08:34:48.623Z,0.97
2019-02-10T08:37:23.702Z,1.27
2019-02-10T08:39:52.637Z,1.33
2019-02-10T08:42:21.586Z,1.57
2019-02-10T08:44:50.510Z,1.60
2019-02-10T08:47:33.716Z,0.93
2019-02-10T08:50:18.811Z,1.20
2019-02-10T08:52:51.988Z,1.10
2019-02-10T08:55:19.699Z,1.40
2019-02-10T08:57:47.186Z,1.00
2019-02-10T09:00:14.640Z,1.13
2019-02-10T09:02:42.051Z,1.13
2019-02-10T09:05:09.440Z,1.30
2019-02-10T09:07:36.849Z,1.13
2019-02-10T09:10:08.391Z,1.50
2019-02-10T09:12:35.807Z,1.50
2019-02-10T09:15:05.400Z,1.27
2019-02-10T09:17:32.815Z,1.30
2019-02-10T09:20:00.275Z,1.10
2019-02-10T09:22:27.719Z,1.37
2019-02-10T09:24:55.107Z,1.10
2019-02-10T09:27:22.522Z,1.02
2019-02-10T09:29:49.905Z,1.27
2019-02-10T09:32:17.522Z,1.60
2019-02-10T09:34:44.914Z,1.57
2019-02-10T09:37:12.410Z,2.07
2019-02-10T09:39:39.869Z,1.83
2019-02-10T09:42:07.281Z,2.00
2019-02-10T09:44:34.686Z,3.50
2019-02-10T09:47:02.077Z,4.00
2019-02-10T09:49:29.487Z,2.40
2019-02-10T09:51:56.878Z,3.40
2019-02-10T09:54:24.297Z,2.60
2019-02-10T09:56:51.774Z,3.40
2019-02-10T09:59:19.203Z,2.27
2019-02-10T10:01:46.678Z,2.33
2019-02-10T10:04:14.100Z,2.50
2019-02-10T10:06:41.481Z,2.30
2019-02-10T10:09:08.898Z,2.57
2019-02-10T10:11:36.293Z,2.67
2019-02-10T10:14:03.769Z,2.20
2019-02-10T10:16:31.156Z,1.93
2019-02-10T10:18:58.637Z,1.93
2019-02-10T10:21:26.030Z,1.97
2019-02-10T10:23:53.461Z,2.97
2019-02-10T10:26:20.848Z,2.40
2019-02-10T10:28:48.331Z,3.50
2019-02-10T10:31:15.722Z,3.10
2019-02-10T10:33:43.143Z,3.73
2019-02-10T10:36:10.532Z,2.20
2019-02-10T10:38:37.956Z,2.93
2019-02-10T10:41:05.341Z,1.70
2019-02-10T10:43:33.546Z,2.00
2019-02-10T10:46:00.992Z,2.70
2019-02-10T10:48:28.404Z,2.60
2019-02-10T10:50:55.794Z,2.33
2019-02-10T10:53:23.185Z,2.23
2019-02-10T10:55:50.593Z,1.87
2019-02-10T10:58:18.169Z,2.40
2019-02-10T11:00:45.590Z,2.20
2019-02-10T11:03:13.045Z,1.70
2019-02-10T11:05:40.463Z,1.90
2019-02-10T11:08:08.030Z,2.40
2019-02-10T11:10:35.515Z,1.73
2019-02-10T11:13:02.919Z,1.70
2019-02-10T11:15:30.359Z,1.90
2019-02-10T11:17:57.745Z,2.03
2019-02-10T11:20:25.178Z,1.87
2019-02-10T11:22:52.577Z,1.90
2019-02-10T11:25:19.995Z,2.27
2019-02-10T11:27:47.383Z,1.43
2019-02-10T11:30:15.174Z,2.77
2019-02-10T11:32:42.557Z,1.83
2019-02-10T11:35:10.148Z,1.80
2019-02-10T11:37:37.625Z,1.83
2019-02-10T11:40:09.289Z,1.80
2019-02-10T11:42:36.670Z,1.73
2019-02-10T11:45:05.344Z,1.53
2019-02-10T11:47:32.736Z,1.60
2019-02-10T11:50:00.217Z,1.50
2019-02-10T11:52:27.635Z,1.97
2019-02-10T11:54:55.015Z,1.43
2019-02-10T11:57:22.536Z,1.73
2019-02-10T11:59:49.959Z,1.40
2019-02-10T12:02:17.435Z,2.00
2019-02-10T12:04:44.808Z,2.13
2019-02-10T12:07:12.222Z,1.30
2019-02-10T12:09:39.609Z,3.00
2019-02-10T12:12:07.023Z,1.30
2019-02-10T12:14:34.507Z,2.00
2019-02-10T12:17:01.921Z,1.60
2019-02-10T12:19:29.413Z,1.67
2019-02-10T12:21:56.837Z,1.90
2019-02-10T12:24:24.326Z,1.77
2019-02-10T12:26:51.744Z,2.00
2019-02-10T12:29:19.143Z,2.10
2019-02-10T12:31:46.566Z,2.03
2019-02-10T12:34:13.949Z,2.23
2019-02-10T12:36:41.447Z,2.20
2019-02-10T12:39:08.840Z,1.63
2019-02-10T12:41:36.354Z,2.47
2019-02-10T12:44:03.823Z,1.50
2019-02-10T12:46:31.417Z,2.63
2019-02-10T12:48:58.813Z,1.73
2019-02-10T12:51:26.231Z,1.97
2019-02-10T12:53:53.689Z,2.20
2019-02-10T12:56:21.105Z,1.50
2019-02-10T12:58:48.573Z,1.90
2019-02-10T13:01:15.988Z,1.90
2019-02-10T13:03:43.447Z,2.00
2019-02-10T13:06:10.878Z,2.83
2019-02-10T13:08:38.258Z,2.33
2019-02-10T13:11:05.670Z,2.40
2019-02-10T13:13:33.063Z,2.27
2019-02-10T13:16:00.497Z,3.77
2019-02-10T13:18:27.927Z,4.43
2019-02-10T13:20:55.410Z,4.30
2019-02-10T13:23:23.140Z,4.00
2019-02-10T13:25:50.972Z,4.07
2019-02-10T13:28:18.878Z,4.17
2019-02-10T13:30:46.615Z,4.90
2019-02-10T13:33:14.410Z,4.80
2019-02-10T13:35:42.032Z,5.83
2019-02-10T13:38:09.774Z,4.00
2019-02-10T13:40:37.667Z,3.53
2019-02-10T13:43:05.623Z,4.50
2019-02-10T13:45:33.299Z,6.47
2019-02-10T13:48:01.218Z,4.60
2019-02-10T13:50:29.022Z,3.80
2019-02-10T13:52:56.672Z,3.53
2019-02-10T13:55:24.369Z,4.37
2019-02-10T13:57:53.774Z,2.87
2019-02-10T14:00:22.549Z,4.03
2019-02-10T14:02:50.261Z,5.03
2019-02-10T14:05:18.066Z,3.90
2019-02-10T14:07:46.187Z,3.53
2019-02-10T14:10:14.537Z,4.40
2019-02-10T14:12:51.199Z,3.42
2019-02-10T14:15:19.414Z,3.53
2019-02-10T14:17:47.168Z,2.80
2019-02-10T14:20:21.043Z,4.47
2019-02-10T14:22:49.017Z,2.93
2019-02-10T14:25:16.827Z,3.03
2019-02-10T14:27:44.553Z,3.60
2019-02-10T14:30:13.953Z,3.40
2019-02-10T14:32:41.810Z,3.53
2019-02-10T14:35:09.835Z,3.13
2019-02-10T14:37:37.298Z,3.43
2019-02-10T14:40:05.560Z,2.40
2019-02-10T14:42:32.977Z,3.13
2019-02-10T14:45:00.447Z,4.13
2019-02-10T14:47:27.860Z,6.47
2019-02-10T14:49:55.249Z,7.37
2019-02-10T14:52:22.668Z,9.73
2019-02-10T14:54:53.654Z,7.82
2019-02-10T14:57:21.068Z,7.57
2019-02-10T14:59:48.514Z,7.43
2019-02-10T15:02:28.193Z,5.80
2019-02-10T15:04:55.657Z,6.23
2019-02-10T15:07:25.135Z,6.80
2019-02-10T15:09:52.123Z,4.67
2019-02-10T15:12:19.542Z,4.13
2019-02-10T15:14:46.938Z,5.57
2019-02-10T15:17:14.348Z,3.10
2019-02-10T15:19:41.803Z,2.37
2019-02-10T15:22:09.222Z,2.60
2019-02-10T15:24:36.618Z,2.33
2019-02-10T15:27:04.106Z,2.20
2019-02-10T15:29:31.494Z,2.30
2019-02-10T15:32:00.314Z,3.47
2019-02-10T15:34:27.863Z,2.47
2019-02-10T15:36:55.374Z,2.60
2019-02-10T15:39:22.855Z,2.97
2019-02-10T15:41:50.350Z,2.83
2019-02-10T15:44:17.739Z,2.70
2019-02-10T15:46:45.177Z,2.37
2019-02-10T15:49:12.571Z,1.90
2019-02-10T15:51:40.149Z,2.03
2019-02-10T15:54:07.542Z,2.10
2019-02-10T15:56:34.962Z,2.03
2019-02-10T15:59:02.354Z,2.43
2019-02-10T16:01:29.828Z,1.50
2019-02-10T16:03:57.168Z,2.10
2019-02-10T16:06:24.562Z,1.30
2019-02-10T16:08:52.717Z,1.90
2019-02-10T16:11:20.326Z,1.73
2019-02-10T16:13:47.746Z,1.63
2019-02-10T16:16:15.202Z,3.60
2019-02-10T16:18:42.616Z,2.10
2019-02-10T16:21:10.005Z,2.13
2019-02-10T16:23:37.418Z,2.43
2019-02-10T16:26:04.803Z,1.80
2019-02-10T16:28:32.213Z,2.23
2019-02-10T16:30:59.604Z,1.80
2019-02-10T16:33:27.019Z,2.60
2019-02-10T16:35:54.550Z,0.97
2019-02-10T16:38:21.976Z,3.47
2019-02-10T16:40:49.353Z,2.20
2019-02-10T16:43:16.765Z,1.90
2019-02-10T16:45:44.157Z,2.13
2019-02-10T16:48:11.669Z,2.13
2019-02-10T16:50:39.056Z,2.23
2019-02-10T16:53:06.473Z,1.70
2019-02-10T16:55:33.870Z,1.93
2019-02-10T16:58:01.284Z,1.50
2019-02-10T17:00:28.657Z,1.80
2019-02-10T17:02:56.075Z,1.47
2019-02-10T17:05:23.461Z,1.73
2019-02-10T17:07:50.875Z,1.50
2019-02-10T17:10:19.271Z,1.30
2019-02-10T17:12:46.757Z,1.33
2019-02-10T17:15:14.142Z,2.30
2019-02-10T17:17:41.772Z,2.00
2019-02-10T17:20:10.301Z,1.20
2019-02-10T17:22:37.782Z,1.40
2019-02-10T17:25:06.702Z,1.20
2019-02-10T17:27:34.108Z,1.43
2019-02-10T17:30:01.590Z,1.43
2019-02-10T17:32:29.005Z,4.33
2019-02-10T17:34:56.398Z,1.60
2019-02-10T17:37:23.813Z,1.67
2019-02-10T17:39:51.197Z,1.53
2019-02-10T17:42:18.614Z,1.90
2019-02-10T17:44:46.003Z,1.20
2019-02-10T17:47:13.435Z,1.50
2019-02-10T17:49:40.822Z,1.40
2019-02-10T17:52:08.231Z,1.33
2019-02-10T17:54:35.619Z,2.07
2019-02-10T17:57:03.014Z,1.20
2019-02-10T17:59:30.429Z,1.33
2019-02-10T18:01:57.818Z,1.50
2019-02-10T18:04:25.239Z,1.90
2019-02-10T18:06:52.722Z,1.80
2019-02-10T18:09:20.058Z,2.10
2019-02-10T18:11:47.438Z,1.80
2019-02-10T18:14:33.128Z,1.50
2019-02-10T18:17:04.949Z,1.67
2019-02-10T18:19:34.015Z,1.93
2019-02-10T18:22:09.342Z,1.37
2019-02-10T18:24:50.605Z,1.33
2019-02-10T18:27:38.131Z,1.27
2019-02-10T18:30:25.137Z,1.23
2019-02-10T18:33:02.978Z,1.20
2019-02-10T18:35:41.114Z,1.30
2019-02-10T18:38:25.306Z,1.33
2019-02-10T18:40:56.953Z,0.93
2019-02-10T18:43:41.154Z,1.57
2019-02-10T18:46:15.853Z,1.50
2019-02-10T18:48:44.909Z,1.00
2019-02-10T18:51:13.952Z,1.40
2019-02-10T18:53:43.054Z,0.93
2019-02-10T18:56:12.086Z,0.77
2019-02-10T18:58:41.129Z,1.37
2019-02-10T19:01:26.938Z,2.07
2019-02-10T19:04:01.978Z,1.23
2019-02-10T19:06:31.011Z,1.20
2019-02-10T19:09:03.739Z,1.00
2019-02-10T19:11:33.463Z,2.17
2019-02-10T19:14:19.241Z,1.20
2019-02-10T19:16:54.232Z,1.20
2019-02-10T19:19:29.542Z,1.47
2019-02-10T19:22:04.572Z,0.93
2019-02-10T19:24:33.635Z,1.20
2019-02-10T19:27:05.432Z,1.30
2019-02-10T19:29:43.456Z,1.67
2019-02-10T19:32:21.567Z,0.70
2019-02-10T19:35:06.888Z,1.93
2019-02-10T19:37:35.906Z,0.87
2019-02-10T19:40:14.513Z,1.10
2019-02-10T19:42:43.541Z,1.30
2019-02-10T19:45:12.673Z,1.43
2019-02-10T19:47:59.825Z,1.10
2019-02-10T19:50:40.634Z,0.80
2019-02-10T19:53:24.487Z,0.90
2019-02-10T19:55:59.498Z,1.17
2019-02-10T19:58:31.511Z,1.10
2019-02-10T20:01:03.316Z,0.90
2019-02-10T20:03:44.362Z,0.80
2019-02-10T20:06:16.451Z,0.80
2019-02-10T20:08:45.509Z,1.33
2019-02-10T20:11:17.217Z,1.23
2019-02-10T20:14:01.475Z,0.90
2019-02-10T20:16:39.159Z,1.07
2019-02-10T20:19:13.982Z,1.10
2019-02-10T20:21:46.007Z,1.00
2019-02-10T20:24:15.183Z,1.00
2019-02-10T20:26:47.187Z,0.70
2019-02-10T20:29:16.343Z,1.10
2019-02-10T20:31:45.444Z,0.73
2019-02-10T20:34:26.592Z,0.80
2019-02-10T20:37:08.281Z,0.90
2019-02-10T20:39:46.392Z,1.33
2019-02-10T20:42:21.013Z,0.87
2019-02-10T20:44:52.754Z,0.70
2019-02-10T20:47:21.777Z,0.70
2019-02-10T20:49:56.865Z,0.73
2019-02-10T20:52:28.574Z,0.83
2019-02-10T20:55:06.630Z,1.10
2019-02-10T20:57:47.997Z,0.77
2019-02-10T21:00:25.914Z,1.10
2019-02-10T21:02:54.942Z,1.57
2019-02-10T21:05:26.992Z,1.10
2019-02-10T21:08:05.226Z,1.33
2019-02-10T21:10:34.282Z,1.03
2019-02-10T21:13:03.309Z,1.00
2019-02-10T21:15:47.535Z,1.30
2019-02-10T21:18:32.915Z,0.90
2019-02-10T21:21:17.531Z,0.67
2019-02-10T21:23:52.222Z,0.83
2019-02-10T21:26:26.843Z,0.80
2019-02-10T21:28:55.981Z,0.90
2019-02-10T21:31:41.396Z,0.80
2019-02-10T21:34:10.423Z,0.90
2019-02-10T21:36:51.388Z,1.52
2019-02-10T21:39:23.388Z,0.80
2019-02-10T21:41:58.518Z,0.90
2019-02-10T21:44:27.542Z,0.90
2019-02-10T21:46:59.080Z,0.70
2019-02-10T21:49:26.472Z,0.70
2019-02-10T21:51:53.882Z,0.80
2019-02-10T21:54:21.351Z,0.70
2019-02-10T21:56:48.766Z,0.60
2019-02-10T21:59:16.162Z,0.70
2019-02-10T22:01:43.574Z,0.70
2019-02-10T22:04:10.972Z,0.70
2019-02-10T22:06:40.308Z,1.07
2019-02-10T22:09:07.430Z,1.13
2019-02-10T22:11:34.841Z,1.37
2019-02-10T22:14:02.231Z,0.70
2019-02-10T22:16:29.730Z,0.70
2019-02-10T22:18:57.118Z,0.80
2019-02-10T22:21:24.533Z,0.87
2019-02-10T22:23:51.927Z,0.67
2019-02-10T22:26:19.321Z,0.60
2019-02-10T22:28:46.819Z,1.20
2019-02-10T22:31:18.909Z,0.77
2019-02-10T22:33:51.183Z,0.80
2019-02-10T22:36:12.494Z,0.70
2019-02-10T22:38:39.922Z,0.67
2019-02-10T22:41:07.314Z,1.30
2019-02-10T22:43:34.734Z,1.10
2019-02-10T22:46:02.163Z,1.00
2019-02-10T22:48:29.575Z,0.77
2019-02-10T22:50:56.963Z,1.00
2019-02-10T22:53:24.378Z,2.13
2019-02-10T22:55:51.785Z,1.00
2019-02-10T22:58:19.198Z,0.80
2019-02-10T23:00:49.594Z,1.03
2019-02-10T23:03:17.150Z,1.23
2019-02-10T23:05:44.814Z,1.23
2019-02-10T23:08:12.383Z,0.70
2019-02-10T23:10:39.940Z,0.70
2019-02-10T23:13:07.355Z,1.00
2019-02-10T23:15:34.730Z,1.10
2019-02-10T23:18:02.135Z,1.20
2019-02-10T23:20:29.531Z,0.70
2019-02-10T23:22:56.943Z,0.80
2019-02-10T23:25:24.331Z,0.70
2019-02-10T23:27:51.742Z,0.87
2019-02-10T23:30:19.167Z,1.27
2019-02-10T23:32:46.581Z,0.90
2019-02-10T23:35:13.973Z,0.87
2019-02-10T23:37:41.386Z,0.53
2019-02-10T23:40:09.732Z,0.60
2019-02-10T23:42:37.089Z,0.80
2019-02-10T23:45:05.542Z,0.80
2019-02-10T23:47:32.961Z,0.97
2019-02-10T23:50:00.639Z,0.80
2019-02-10T23:52:28.057Z,0.70
2019-02-10T23:54:55.438Z,0.60
2019-02-10T23:57:22.858Z,0.80
2019-02-10T23:59:50.241Z,0.90
